Time;durP1;ratioP1;P1;durP2;ratioP2;P2;SDS_P1;SDS_P2;PMS_P1;PMS_P2;Temp;Humidity;BMP_temperature;BMP_pressure;BME280_temperature;BME280_humidity;BME280_pressure;Samples;Min_cycle;Max_cycle;Signal;HPM_P1;HPM_P2
2023/05/22 00:02:08;;;;;;;12.13;8.30;;;;;;;-143.21;77.47;71982.94;5084206;28;20200;-76
2023/05/22 00:04:34;;;;;;;9.83;7.37;;;;;;;-143.21;77.75;71977.00;5088678;28;20197;-76
2023/05/22 00:07:02;;;;;;;10.80;7.30;;;;;;;-143.21;77.27;71969.06;5084107;28;20200;-75
2023/05/22 00:09:29;;;;;;;10.63;7.23;;;;;;;-143.21;77.27;71978.97;5083389;28;20192;-75
2023/05/22 00:11:56;;;;;;;12.80;7.20;;;;;;;-143.21;77.32;71984.94;5081626;28;20201;-76
2023/05/22 00:14:23;;;;;;;10.53;7.10;;;;;;;-143.21;76.99;71977.00;5085550;28;20632;-76
2023/05/22 00:16:52;;;;;;;11.47;7.60;;;;;;;-143.21;76.92;71971.06;5084375;28;20193;-76
2023/05/22 00:19:21;;;;;;;10.33;7.37;;;;;;;-143.21;77.06;71971.06;5082270;28;20226;-76
2023/05/22 00:21:50;;;;;;;9.90;7.70;;;;;;;-143.21;76.43;71959.16;5082889;28;20186;-76
2023/05/22 00:24:17;;;;;;;18.97;8.00;;;;;;;-143.21;76.07;71947.25;5084156;28;20242;-76
2023/05/22 00:26:43;;;;;;;10.73;7.33;;;;;;;-143.21;76.25;71951.22;5088196;28;20193;-76
2023/05/22 00:29:11;;;;;;;13.37;7.53;;;;;;;-143.21;76.08;71943.28;5081125;28;20205;-76
2023/05/22 00:31:37;;;;;;;11.40;7.50;;;;;;;-143.21;76.27;71941.31;5080047;28;20266;-77
2023/05/22 00:34:06;;;;;;;11.53;7.47;;;;;;;-143.21;75.79;71935.34;5082733;28;20201;-76
2023/05/22 00:36:32;;;;;;;12.07;7.23;;;;;;;-143.21;75.41;71935.34;5082269;28;20193;-77
2023/05/22 00:38:59;;;;;;;9.90;7.60;;;;;;;-143.21;75.44;71937.34;5081885;28;20268;-77
2023/05/22 00:41:26;;;;;;;10.70;7.47;;;;;;;-143.21;75.42;71935.34;5084065;28;20201;-75
2023/05/22 00:43:53;;;;;;;15.83;7.60;;;;;;;-143.21;75.43;71937.34;5079215;28;20200;-81
2023/05/22 00:46:21;;;;;;;11.27;7.40;;;;;;;-143.21;74.74;71935.34;5096813;28;20726;-81
2023/05/22 00:48:48;;;;;;;14.30;7.63;;;;;;;-143.21;75.20;71943.28;5100752;28;20249;-81
2023/05/22 00:51:17;;;;;;;17.17;7.77;;;;;;;-143.21;75.69;71963.13;5099378;28;20643;-81
2023/05/22 00:53:44;;;;;;;11.67;7.37;;;;;;;-143.21;75.59;71959.16;5080780;28;20201;-82
2023/05/22 00:56:13;;;;;;;12.70;7.80;;;;;;;-143.21;76.10;71961.13;5080437;28;20220;-81
2023/05/22 00:58:41;;;;;;;12.83;7.60;;;;;;;-143.21;75.48;71957.16;5081389;28;20194;-82
2023/05/22 01:01:08;;;;;;;14.47;8.03;;;;;;;-143.21;75.83;71955.19;5094866;28;20235;-82
2023/05/22 01:03:36;;;;;;;13.00;7.30;;;;;;;-143.21;75.58;71961.13;5078948;28;20197;-83
2023/05/22 01:06:03;;;;;;;12.27;7.37;;;;;;;-143.21;76.19;71969.06;5085744;28;20198;-83
2023/05/22 01:08:31;;;;;;;11.53;7.73;;;;;;;-143.21;76.37;71963.13;5086101;28;20203;-83
2023/05/22 01:11:04;;;;;;;9.37;7.40;;;;;;;-143.21;76.25;71963.13;5088402;28;20196;-83
2023/05/22 01:13:39;;;;;;;11.80;7.60;;;;;;;-143.21;76.09;71969.06;5090240;28;20205;-83
2023/05/22 01:16:13;;;;;;;14.53;7.80;;;;;;;-143.21;76.47;71967.09;5087348;28;20193;-84
2023/05/22 01:18:46;;;;;;;12.53;8.47;;;;;;;-143.21;76.63;71975.00;5084179;28;20224;-84
2023/05/22 01:21:21;;;;;;;15.03;7.77;;;;;;;-143.21;76.70;71980.97;5095321;28;20668;-84
2023/05/22 01:24:36;;;;;;;11.67;7.70;;;;;;;-143.21;76.96;71980.97;5091295;28;20190;-83
2023/05/22 01:27:28;;;;;;;11.27;8.43;;;;;;;-143.21;77.53;71978.97;5049789;28;20197;-84
2023/05/22 01:30:12;;;;;;;14.70;8.50;;;;;;;-143.21;77.41;71980.97;5088624;28;20619;-83
2023/05/22 01:32:43;;;;;;;12.53;8.73;;;;;;;-143.21;77.18;71980.97;5087715;28;20205;-81
2023/05/22 01:35:12;;;;;;;13.37;8.80;;;;;;;-143.21;76.83;71975.00;5088448;28;20640;-81
2023/05/22 01:37:39;;;;;;;14.57;8.50;;;;;;;-143.21;76.88;71978.97;5085679;28;20218;-82
2023/05/22 01:40:08;;;;;;;14.60;8.60;;;;;;;-143.21;76.77;71978.97;5100327;28;20214;-82
2023/05/22 01:42:35;;;;;;;11.57;8.40;;;;;;;-143.21;76.67;71977.00;5088787;28;20209;-81
2023/05/22 01:45:02;;;;;;;13.10;8.70;;;;;;;-143.21;76.91;71982.94;5094763;28;20204;-81
2023/05/22 01:47:28;;;;;;;14.30;8.17;;;;;;;-143.21;77.35;71992.88;5081572;28;20212;-81
2023/05/22 01:49:57;;;;;;;10.73;8.03;;;;;;;-143.21;77.85;71990.88;5076318;28;20201;-81
2023/05/22 01:52:29;;;;;;;18.07;9.00;;;;;;;-143.21;77.71;71988.91;5083171;28;20201;-81
2023/05/22 01:55:06;;;;;;;15.53;8.37;;;;;;;-143.21;77.71;71998.81;5078759;28;20197;-81
2023/05/22 01:57:40;;;;;;;12.33;8.90;;;;;;;-143.21;78.35;72006.75;5096026;28;20227;-81
2023/05/22 02:00:09;;;;;;;16.77;9.17;;;;;;;-143.21;78.38;72002.78;5095971;28;21065;-82
2023/05/22 02:02:37;;;;;;;13.73;9.10;;;;;;;-143.21;79.37;72018.63;5092193;28;20251;-83
2023/05/22 02:05:10;;;;;;;13.03;9.23;;;;;;;-143.21;79.63;72014.69;5101306;28;20200;-82
2023/05/22 02:07:38;;;;;;;14.30;8.63;;;;;;;-143.21;79.53;72018.63;5086775;28;20684;-84
2023/05/22 02:10:07;;;;;;;16.50;9.20;;;;;;;-143.21;79.16;72028.56;5087378;28;20672;-84
2023/05/22 02:12:34;;;;;;;14.10;8.90;;;;;;;-143.21;79.34;72024.59;5079587;28;20193;-76
2023/05/22 02:15:02;;;;;;;13.23;9.27;;;;;;;-143.21;79.17;72026.56;5078237;28;20656;-76
2023/05/22 02:17:28;;;;;;;16.87;9.43;;;;;;;-143.21;79.86;72042.44;5086376;28;20647;-76
2023/05/22 02:19:55;;;;;;;15.70;9.37;;;;;;;-143.21;79.95;72046.41;5078859;28;21555;-76
2023/05/22 02:22:23;;;;;;;15.03;8.93;;;;;;;-143.21;80.42;72058.31;5081980;28;20729;-76
2023/05/22 02:24:51;;;;;;;15.67;9.57;;;;;;;-143.21;80.87;72066.22;5085495;28;20192;-76
2023/05/22 02:27:18;;;;;;;17.53;10.37;;;;;;;-143.21;81.34;72074.16;5083845;28;20258;-76
2023/05/22 02:29:45;;;;;;;16.73;9.90;;;;;;;-143.21;81.24;72080.13;5085330;28;20720;-76
2023/05/22 02:32:12;;;;;;;12.87;9.77;;;;;;;-143.21;81.60;72084.06;5081838;28;20197;-75
2023/05/22 02:34:38;;;;;;;16.77;9.27;;;;;;;-143.21;81.83;72090.03;5083609;28;20209;-75
2023/05/22 02:37:06;;;;;;;18.33;9.97;;;;;;;-143.21;81.60;72086.06;5078931;28;20602;-82
2023/05/22 02:39:34;;;;;;;24.63;10.27;;;;;;;-143.21;81.68;72094.00;5089984;28;20707;-85
2023/05/22 02:42:00;;;;;;;14.13;9.67;;;;;;;-143.21;81.63;72094.00;5092079;28;20197;-85
2023/05/22 02:44:27;;;;;;;21.17;10.33;;;;;;;-143.21;81.79;72095.97;5087368;28;20204;-83
2023/05/22 02:46:54;;;;;;;19.67;10.13;;;;;;;-143.21;81.79;72094.00;5084917;28;20196;-82
2023/05/22 02:49:21;;;;;;;20.70;11.17;;;;;;;-143.21;81.83;72101.94;5082153;28;20193;-82
2023/05/22 02:51:47;;;;;;;16.83;10.83;;;;;;;-143.21;81.58;72119.78;5101210;28;20204;-76
2023/05/22 02:54:15;;;;;;;21.10;10.67;;;;;;;-143.21;82.31;72123.75;5086910;28;20201;-76
2023/05/22 02:56:44;;;;;;;17.77;9.97;;;;;;;-143.21;82.94;72135.63;5086068;28;20256;-75
2023/05/22 02:59:10;;;;;;;19.80;10.07;;;;;;;-143.21;83.57;72141.59;5087250;28;20211;-76
2023/05/22 03:01:38;;;;;;;23.07;10.70;;;;;;;-143.21;83.74;72147.53;5098102;28;20332;-84
2023/05/22 03:04:06;;;;;;;27.00;10.33;;;;;;;-143.21;83.47;72137.63;5100048;28;20712;-85
2023/05/22 03:06:33;;;;;;;20.23;10.70;;;;;;;-143.21;83.25;72129.69;5090053;28;20283;-85
2023/05/22 03:09:02;;;;;;;23.90;10.93;;;;;;;-143.21;83.15;72137.63;5091331;28;20279;-77
2023/05/22 03:11:29;;;;;;;24.10;10.93;;;;;;;-143.21;83.20;72129.69;5084812;28;20239;-85
2023/05/22 03:13:57;;;;;;;26.10;11.50;;;;;;;-143.21;83.54;72139.59;5085559;28;20575;-82
2023/05/22 03:16:24;;;;;;;20.53;10.97;;;;;;;-143.21;83.28;72143.56;5089125;28;20621;-83
2023/05/22 03:18:53;;;;;;;33.77;12.03;;;;;;;-143.21;83.52;72143.56;5086227;28;20280;-76
2023/05/22 03:21:19;;;;;;;22.00;12.17;;;;;;;-143.21;83.29;72149.53;5080880;28;20563;-76
2023/05/22 03:23:48;;;;;;;20.13;11.43;;;;;;;-143.21;83.60;72151.50;5085649;28;20274;-76
2023/05/22 03:26:14;;;;;;;26.87;12.20;;;;;;;-143.21;83.56;72151.50;5083642;28;20223;-76
2023/05/22 03:28:41;;;;;;;22.10;12.00;;;;;;;-143.21;83.94;72151.50;5088203;28;20211;-76
2023/05/22 03:31:09;;;;;;;16.50;11.10;;;;;;;-143.21;83.79;72147.53;5081811;28;20197;-82
2023/05/22 03:33:36;;;;;;;24.70;11.87;;;;;;;-143.21;83.55;72159.44;5088180;28;20201;-81
2023/05/22 03:36:03;;;;;;;22.40;12.70;;;;;;;-143.21;83.41;72173.31;5085200;28;20201;-83
2023/05/22 03:38:42;;;;;;;23.43;12.30;;;;;;;-143.21;83.15;72183.22;5084719;28;20200;-84
2023/05/22 03:41:09;;;;;;;28.77;13.10;;;;;;;-143.21;83.57;72191.16;5103455;28;20232;-81
2023/05/22 03:43:35;;;;;;;26.33;12.47;;;;;;;-143.21;84.43;72203.06;5092480;28;20200;-82
2023/05/22 03:46:02;;;;;;;26.77;12.90;;;;;;;-143.21;84.93;72201.09;5092589;28;20200;-83
2023/05/22 03:48:32;;;;;;;21.60;13.33;;;;;;;-143.21;85.20;72201.09;5098358;28;20213;-85
2023/05/22 03:50:59;;;;;;;21.60;12.80;;;;;;;-143.21;85.35;72199.09;5085488;28;20209;-87
2023/05/22 03:53:26;;;;;;;23.60;13.03;;;;;;;-143.21;85.35;72205.03;5089219;28;20201;-87
2023/05/22 03:55:53;;;;;;;25.60;13.23;;;;;;;-143.21;85.38;72193.16;5103908;28;20200;-85
2023/05/22 03:58:19;;;;;;;25.97;11.93;;;;;;;-143.21;85.35;72189.19;5077874;28;20255;-86
2023/05/22 04:00:46;;;;;;;24.67;12.97;;;;;;;-143.21;85.51;72185.22;5078711;28;20275;-76
2023/05/22 04:03:13;;;;;;;27.30;13.10;;;;;;;-143.21;85.36;72183.22;5080930;28;20196;-76
2023/05/22 04:05:41;;;;;;;21.50;12.87;;;;;;;-143.21;85.63;72173.31;5082113;28;20201;-77
2023/05/22 04:08:08;;;;;;;26.40;12.60;;;;;;;-143.21;85.35;72165.38;5084458;28;20257;-76
2023/05/22 04:10:37;;;;;;;23.90;13.30;;;;;;;-143.21;85.33;72155.47;5084882;28;20283;-76
2023/05/22 04:13:04;;;;;;;30.63;13.60;;;;;;;-143.21;85.13;72151.50;5088374;28;20193;-76
2023/05/22 04:15:33;;;;;;;31.93;14.57;;;;;;;-143.21;85.14;72153.47;5084818;28;20282;-74
2023/05/22 04:18:00;;;;;;;22.33;14.33;;;;;;;-143.21;85.56;72151.50;5083739;28;20609;-76
2023/05/22 04:20:27;;;;;;;25.57;15.37;;;;;;;-143.21;85.64;72145.56;5085942;28;20305;-77
2023/05/22 04:22:55;;;;;;;32.27;16.03;;;;;;;-143.21;85.33;72135.63;5082183;28;20194;-79
2023/05/22 04:25:22;;;;;;;27.07;14.27;;;;;;;-143.21;85.16;72125.72;5084460;28;20200;-78
2023/05/22 04:27:49;;;;;;;33.17;17.37;;;;;;;-143.21;85.29;72127.72;5096656;28;20192;-86
2023/05/22 04:30:17;;;;;;;27.37;16.87;;;;;;;-143.21;85.16;72123.75;5090765;28;20253;-87
2023/05/22 04:32:44;;;;;;;29.27;17.30;;;;;;;-143.21;85.14;72125.72;5080050;28;20197;-87
2023/05/22 04:35:11;;;;;;;34.73;16.87;;;;;;;-143.21;85.00;72145.56;5096959;28;20715;-86
2023/05/22 04:37:39;;;;;;;33.40;16.63;;;;;;;-143.21;84.74;72143.56;5094954;28;20232;-86
2023/05/22 04:40:10;;;;;;;32.47;16.03;;;;;;;-143.21;85.27;72155.47;5086545;28;20223;-77
2023/05/22 04:42:37;;;;;;;36.63;16.57;;;;;;;-143.21;85.30;72155.47;5085208;28;20220;-77
2023/05/22 04:45:05;;;;;;;26.93;14.67;;;;;;;-143.21;85.88;72151.50;5078681;28;20201;-77
2023/05/22 04:47:32;;;;;;;35.23;14.93;;;;;;;-143.21;86.12;72147.53;5085678;28;20193;-78
2023/05/22 04:50:01;;;;;;;33.80;16.10;;;;;;;-143.21;85.91;72135.63;5084719;28;20656;-87
2023/05/22 04:52:28;;;;;;;28.27;14.83;;;;;;;-143.21;85.46;72121.75;5077644;28;20247;-87
2023/05/22 04:54:54;;;;;;;23.67;13.93;;;;;;;-143.21;84.20;72105.91;5084394;28;20198;-87
2023/05/22 04:57:24;;;;;;;24.13;13.10;;;;;;;-143.21;82.35;72097.97;5097824;28;20274;-85
2023/05/22 04:59:52;;;;;;;23.67;13.50;;;;;;;-143.21;82.04;72082.09;5098337;28;20193;-85
2023/05/22 05:02:19;;;;;;;20.43;13.67;;;;;;;-143.21;81.68;72080.13;5094640;28;20668;-87
2023/05/22 05:04:46;;;;;;;23.33;13.50;;;;;;;-143.21;82.33;72086.06;5085963;28;20208;-85
2023/05/22 05:07:17;;;;;;;26.40;13.70;;;;;;;-143.21;81.86;72074.16;5079100;28;20291;-86
2023/05/22 05:09:44;;;;;;;23.93;13.47;;;;;;;-143.21;81.54;72066.22;5100674;28;20234;-85
2023/05/22 05:12:11;;;;;;;23.33;13.07;;;;;;;-143.21;80.27;72046.41;5099429;28;20197;-86
2023/05/22 05:14:39;;;;;;;21.90;13.03;;;;;;;-143.21;80.35;72054.34;5092148;28;20224;-86
2023/05/22 05:17:06;;;;;;;19.60;13.07;;;;;;;-143.21;80.75;72046.41;5095104;28;20247;-86
2023/05/22 05:19:33;;;;;;;23.00;13.53;;;;;;;-143.21;81.34;72046.41;5088607;28;20201;-84
2023/05/22 05:22:00;;;;;;;25.07;13.03;;;;;;;-143.21;81.20;72036.50;5077535;28;20928;-78
2023/05/22 05:24:27;;;;;;;21.93;12.67;;;;;;;-143.21;81.37;72028.56;5083487;28;20250;-78
2023/05/22 05:26:53;;;;;;;20.90;12.40;;;;;;;-143.21;80.42;72014.69;5084399;28;20617;-79
2023/05/22 05:29:20;;;;;;;23.10;11.90;;;;;;;-143.21;79.95;72002.78;5078561;28;20474;-78
2023/05/22 05:31:49;;;;;;;24.30;12.60;;;;;;;-143.21;79.61;71996.81;5083915;28;20188;-78
2023/05/22 05:34:16;;;;;;;22.53;12.40;;;;;;;-143.21;79.50;71990.88;5086959;28;20291;-78
2023/05/22 05:36:42;;;;;;;16.93;12.03;;;;;;;-143.21;79.30;71982.94;5082369;28;20258;-78
2023/05/22 05:39:09;;;;;;;22.07;11.73;;;;;;;-143.21;78.51;71978.97;5082244;28;20239;-78
2023/05/22 05:41:36;;;;;;;21.17;11.77;;;;;;;-143.21;78.36;71967.09;5087480;28;20224;-78
2023/05/22 05:44:03;;;;;;;19.70;11.13;;;;;;;-143.21;78.16;71971.06;5084508;28;20197;-78
2023/05/22 05:46:30;;;;;;;18.67;9.97;;;;;;;-143.21;77.79;71967.09;5093299;28;20200;-78
2023/05/22 05:48:58;;;;;;;15.60;10.77;;;;;;;-143.21;75.80;71957.16;5078895;28;20330;-78
2023/05/22 05:51:25;;;;;;;19.70;10.90;;;;;;;-143.21;75.30;71949.25;5088245;28;20200;-79
2023/05/22 05:53:52;;;;;;;14.53;9.60;;;;;;;-143.21;75.34;71953.19;5081149;28;20201;-77
2023/05/22 05:56:20;;;;;;;17.70;10.47;;;;;;;-143.21;74.62;71941.31;5083251;28;20189;-77
2023/05/22 05:58:46;;;;;;;14.67;9.53;;;;;;;-143.21;73.54;71935.34;5082041;28;20209;-77
2023/05/22 06:01:13;;;;;;;13.83;9.10;;;;;;;-143.21;72.65;71937.34;5080946;28;20223;-78
2023/05/22 06:03:40;;;;;;;21.80;9.67;;;;;;;-143.21;72.20;71923.47;5085024;28;20190;-77
2023/05/22 06:06:09;;;;;;;16.07;9.47;;;;;;;-143.21;70.63;71907.59;5080545;28;20577;-77
2023/05/22 06:08:36;;;;;;;14.20;9.53;;;;;;;-143.21;70.13;71907.59;5087458;28;20203;-77
2023/05/22 06:11:04;;;;;;;22.17;9.23;;;;;;;-143.21;69.77;71899.66;5085698;28;20268;-78
2023/05/22 06:13:30;;;;;;;16.87;9.17;;;;;;;-143.21;68.58;71889.75;5087890;28;20201;-78
2023/05/22 06:15:57;;;;;;;16.23;9.17;;;;;;;-143.21;68.95;71891.72;5084114;28;20211;-79
2023/05/22 06:18:24;;;;;;;17.13;9.40;;;;;;;-143.21;68.87;71883.81;5086797;28;20197;-79
2023/05/22 06:20:51;;;;;;;15.83;8.80;;;;;;;-143.21;68.84;71879.84;5082355;28;20285;-77
2023/05/22 06:23:20;;;;;;;20.93;10.17;;;;;;;-143.21;68.79;71875.88;5087266;28;20261;-77
2023/05/22 06:25:47;;;;;;;16.67;8.93;;;;;;;-143.21;67.92;71858.03;5092154;28;20200;-77
2023/05/22 06:28:14;;;;;;;18.00;9.27;;;;;;;-143.21;68.20;71856.03;5084335;28;20662;-76
2023/05/22 06:30:40;;;;;;;23.80;8.60;;;;;;;-143.21;67.58;71850.09;5081561;28;20672;-77
2023/05/22 06:33:07;;;;;;;19.17;8.87;;;;;;;-143.21;67.79;71840.19;5086395;28;20702;-77
2023/05/22 06:35:34;;;;;;;13.37;8.17;;;;;;;-143.21;67.73;71836.22;5093220;28;20197;-76
2023/05/22 06:38:01;;;;;;;17.00;8.17;;;;;;;-143.21;67.35;71828.28;5084113;28;20614;-77
2023/05/22 06:40:29;;;;;;;20.03;8.63;;;;;;;-143.21;67.43;71810.44;5086448;28;20236;-77
2023/05/22 06:42:58;;;;;;;16.37;8.50;;;;;;;-143.21;66.97;71798.53;5090224;28;20575;-77
2023/05/22 06:45:25;;;;;;;21.30;8.57;;;;;;;-143.21;66.50;71784.66;5085035;28;20272;-77
2023/05/22 06:47:52;;;;;;;15.83;8.03;;;;;;;-143.21;64.54;71766.81;5086435;28;20566;-76
2023/05/22 06:50:19;;;;;;;17.33;7.63;;;;;;;-143.21;63.49;71762.84;5089890;28;20193;-77
2023/05/22 06:52:46;;;;;;;15.93;8.03;;;;;;;-143.21;62.15;71754.91;5088664;28;20196;-77
2023/05/22 06:55:13;;;;;;;14.17;7.40;;;;;;;-143.21;61.65;71743.00;5089933;28;20201;-78
2023/05/22 06:57:48;;;;;;;13.33;7.10;;;;;;;-143.21;62.20;71729.13;5085647;28;20245;-77
2023/05/22 07:00:21;;;;;;;19.58;7.93;;;;;;;-143.21;62.79;71723.19;5084465;28;20199;-81
2023/05/22 07:05:56;;;;;;;14.65;7.28;;;;;;;-143.21;63.49;71693.44;5080725;28;20193;-80
2023/05/22 07:08:23;;;;;;;13.60;7.38;;;;;;;-143.21;63.80;71677.59;5083082;28;20382;-80
2023/05/22 07:10:50;;;;;;;12.02;7.10;;;;;;;-143.21;62.86;71669.66;5094429;28;20667;-81
2023/05/22 07:13:18;;;;;;;18.17;7.05;;;;;;;-143.21;62.21;71657.75;5094747;28;20250;-82
2023/05/22 07:15:46;;;;;;;16.17;7.43;;;;;;;-143.21;61.29;71645.88;5093873;28;20192;-81
2023/05/22 07:18:14;;;;;;;12.55;7.78;;;;;;;-143.21;61.72;71631.97;5088477;28;20201;-82
2023/05/22 07:20:40;;;;;;;14.15;7.78;;;;;;;-143.21;61.89;71626.03;5089091;28;20186;-79
2023/05/22 07:23:08;;;;;;;14.40;7.05;;;;;;;-143.21;60.73;71610.16;5091705;28;20209;-79
2023/05/22 07:25:34;;;;;;;12.20;6.55;;;;;;;-143.21;60.71;71608.19;5074499;28;20193;-80
2023/05/22 07:28:07;;;;;;;14.10;6.57;;;;;;;-143.21;59.55;71596.28;5084831;28;20189;-79
2023/05/22 07:30:35;;;;;;;16.13;6.28;;;;;;;-143.21;59.45;71594.31;5093609;28;20197;-80
2023/05/22 07:33:02;;;;;;;15.90;6.00;;;;;;;-143.21;59.20;71580.44;5094003;28;20197;-80
2023/05/22 07:35:29;;;;;;;17.95;6.38;;;;;;;-143.21;58.61;71578.44;5094130;28;20200;-80
2023/05/22 07:37:56;;;;;;;12.50;6.28;;;;;;;-143.21;58.67;71566.56;5093801;28;20595;-82
2023/05/22 07:40:23;;;;;;;15.73;6.28;;;;;;;-143.21;58.04;71550.69;5093061;28;20196;-81
2023/05/22 07:42:50;;;;;;;16.80;6.00;;;;;;;-143.21;57.34;71542.75;5083805;28;20245;-82
2023/05/22 07:45:17;;;;;;;11.77;6.13;;;;;;;-143.21;56.83;71532.84;5094598;28;20204;-81
2023/05/22 07:47:45;;;;;;;11.02;6.30;;;;;;;-143.21;56.63;71520.94;5093995;28;20271;-82
2023/05/22 07:50:12;;;;;;;10.27;6.03;;;;;;;-143.21;55.87;71526.91;5087954;28;20198;-81
2023/05/22 07:56:10;;;;;;;14.40;5.78;;;;;;;-143.21;56.38;71495.19;5044453;28;20205;-78
2023/05/22 07:58:38;;;;;;;13.55;6.50;;;;;;;-143.21;55.85;71493.19;5051208;28;20645;-78
2023/05/22 08:01:05;;;;;;;12.07;6.47;;;;;;;-143.21;56.84;71483.28;5054952;23;20206;-77
2023/05/22 08:03:33;;;;;;;13.75;5.65;;;;;;;-143.21;56.50;71479.31;5031519;28;20210;-78
2023/05/22 08:06:00;;;;;;;11.90;5.40;;;;;;;-143.21;55.75;71473.38;5032406;28;20202;-77
2023/05/22 08:08:27;;;;;;;10.80;5.70;;;;;;;-143.21;55.04;71451.56;5033063;28;20676;-78
2023/05/22 08:10:54;;;;;;;12.05;6.05;;;;;;;-143.21;54.33;71451.56;5031520;28;20657;-77
2023/05/22 08:13:22;;;;;;;8.20;4.85;;;;;;;-143.21;54.86;71439.66;5033081;28;20202;-79
2023/05/22 08:15:49;;;;;;;14.00;5.45;;;;;;;-143.21;53.96;71433.72;5032959;28;20282;-77
2023/05/22 08:18:16;;;;;;;10.73;5.68;;;;;;;-143.21;54.68;71425.78;5032686;28;20673;-78
2023/05/22 08:20:45;;;;;;;16.42;5.55;;;;;;;-143.21;53.09;71419.84;5029444;28;20191;-77
2023/05/22 08:23:11;;;;;;;13.27;6.13;;;;;;;-143.21;53.54;71407.94;5030152;28;20195;-77
2023/05/22 08:25:38;;;;;;;11.60;5.45;;;;;;;-143.21;52.37;71392.06;5032147;28;20191;-76
2023/05/22 08:28:06;;;;;;;10.65;5.00;;;;;;;-143.21;52.91;71378.19;5032562;28;20206;-78
2023/05/22 08:30:32;;;;;;;8.60;5.25;;;;;;;-143.21;51.48;71378.19;5031767;28;20311;-76
2023/05/22 08:32:59;;;;;;;9.73;5.20;;;;;;;-143.21;51.48;71362.34;5032562;28;20187;-77
2023/05/22 08:35:26;;;;;;;9.20;5.03;;;;;;;-143.21;51.97;71346.47;5032367;28;20252;-76
2023/05/22 08:37:54;;;;;;;10.88;4.93;;;;;;;-143.21;50.15;71338.53;5032228;28;20677;-76
2023/05/22 08:40:22;;;;;;;8.15;5.30;;;;;;;-143.21;50.92;71324.66;5031212;28;20225;-76
2023/05/22 08:42:53;;;;;;;9.85;4.85;;;;;;;-143.21;50.43;71312.78;5031117;28;20609;-76
2023/05/22 08:45:19;;;;;;;11.02;4.70;;;;;;;-143.21;50.81;71290.97;5032164;28;20205;-76
2023/05/22 08:47:51;;;;;;;11.75;4.95;;;;;;;-143.21;50.04;71277.09;5032204;28;20194;-76
2023/05/22 08:50:19;;;;;;;8.98;4.28;;;;;;;-143.21;49.49;71257.25;5031182;28;20206;-77
2023/05/22 08:52:50;;;;;;;9.15;4.20;;;;;;;-143.21;48.06;71253.28;5032057;28;20195;-76
2023/05/22 08:55:19;;;;;;;9.80;3.78;;;;;;;-143.21;47.20;71243.38;5031835;28;20187;-76
2023/05/22 08:57:46;;;;;;;6.05;3.58;;;;;;;-143.21;45.29;71233.47;5029189;28;20206;-79
2023/05/22 09:00:14;;;;;;;10.25;3.97;;;;;;;-143.21;45.96;71229.50;5030507;28;20619;-77
2023/05/22 09:02:42;;;;;;;9.13;3.90;;;;;;;-143.21;45.73;71205.72;5030988;28;20250;-77
2023/05/22 09:05:09;;;;;;;7.18;3.75;;;;;;;-143.21;45.24;71187.88;5031182;28;20978;-78
2023/05/22 09:07:37;;;;;;;7.50;4.10;;;;;;;-143.21;45.82;71191.84;5032238;28;20187;-81
2023/05/22 09:10:06;;;;;;;10.77;4.07;;;;;;;-143.21;46.49;71187.88;5032620;28;20273;-82
2023/05/22 09:12:34;;;;;;;10.50;4.32;;;;;;;-143.21;45.70;71174.00;5032475;28;20641;-82
2023/05/22 09:15:08;;;;;;;10.98;4.32;;;;;;;-143.21;46.69;71172.00;5032995;28;20194;-82
2023/05/22 09:17:38;;;;;;;9.38;3.80;;;;;;;-143.21;45.53;71166.06;5032291;28;20193;-82
2023/05/22 09:20:06;;;;;;;8.77;4.47;;;;;;;-143.21;45.03;71162.09;5031835;28;20194;-81
2023/05/22 09:22:37;;;;;;;6.45;3.65;;;;;;;-143.21;43.64;71174.00;5031943;28;20229;-81
2023/05/22 09:25:06;;;;;;;10.70;3.90;;;;;;;-143.21;43.61;71177.97;5023046;28;20191;-82
2023/05/22 09:27:35;;;;;;;8.98;4.40;;;;;;;-143.21;44.43;71183.91;5032093;28;20259;-80
2023/05/22 09:30:01;;;;;;;6.80;4.03;;;;;;;-143.21;44.27;71181.94;5028683;28;20195;-81
2023/05/22 09:32:29;;;;;;;6.30;4.25;;;;;;;-143.21;44.40;71183.91;5031507;28;20199;-82
2023/05/22 09:35:03;;;;;;;7.47;3.92;;;;;;;-143.21;44.93;71181.94;5032115;28;20210;-82
2023/05/22 09:37:34;;;;;;;11.75;4.57;;;;;;;-143.21;46.00;71181.94;5031794;28;20221;-84
2023/05/22 09:40:04;;;;;;;15.27;5.05;;;;;;;-143.21;46.13;71175.97;5029067;28;20272;-80
2023/05/22 09:42:34;;;;;;;9.63;4.20;;;;;;;-143.21;46.55;71168.06;5028557;28;20203;-81
2023/05/22 09:45:05;;;;;;;11.32;4.32;;;;;;;-143.21;46.79;71172.00;5031291;28;20256;-81
2023/05/22 09:47:33;;;;;;;14.95;3.88;;;;;;;-143.21;49.59;71179.94;5031507;28;20325;-81
2023/05/22 09:50:03;;;;;;;7.18;4.28;;;;;;;-143.21;46.92;71205.72;5031268;28;20680;-81
2023/05/22 09:52:33;;;;;;;10.95;3.80;;;;;;;-143.21;47.79;71205.72;5030364;28;20752;-81
2023/05/22 09:55:03;;;;;;;12.13;4.50;;;;;;;-143.21;47.29;71227.53;5026321;28;20195;-82
2023/05/22 09:57:32;;;;;;;6.20;3.70;;;;;;;-143.21;51.96;71235.44;5016811;28;20633;-82
2023/05/22 10:00:08;;;;;;;11.18;4.18;;;;;;;-143.21;48.38;71225.53;5031405;28;20230;-82
2023/05/22 10:02:36;;;;;;;9.93;4.30;;;;;;;-143.21;49.52;71247.34;5030737;28;20230;-81
2023/05/22 10:05:06;;;;;;;8.27;4.30;;;;;;;-143.21;49.47;71275.09;5028797;28;20246;-82
2023/05/22 10:07:37;;;;;;;8.68;4.38;;;;;;;-143.21;50.18;71281.06;5021400;28;20186;-80
2023/05/22 10:10:07;;;;;;;8.30;4.50;;;;;;;-143.21;50.26;71285.03;5031012;28;20191;-85
2023/05/22 10:12:41;;;;;;;9.18;4.50;;;;;;;-143.21;49.50;71318.72;5024235;28;20205;-82
2023/05/22 10:15:11;;;;;;;11.23;4.50;;;;;;;-143.21;49.85;71332.59;5032194;28;20187;-85
2023/05/22 10:17:40;;;;;;;15.93;5.00;;;;;;;-143.21;50.86;71318.72;5031953;28;20190;-83
2023/05/22 10:20:09;;;;;;;10.18;4.70;;;;;;;-143.21;50.95;71332.59;5031646;28;20203;-83
2023/05/22 10:22:37;;;;;;;9.23;4.90;;;;;;;-143.21;50.88;71346.47;5032026;28;20232;-87
2023/05/22 10:25:06;;;;;;;7.80;4.63;;;;;;;-143.21;50.60;71352.44;5031629;28;20198;-84
2023/05/22 10:27:33;;;;;;;9.35;4.75;;;;;;;-143.21;51.10;71338.53;5030907;28;20199;-84
2023/05/22 10:30:10;;;;;;;12.35;4.60;;;;;;;-143.21;50.45;71346.47;5031329;28;20198;-84
2023/05/22 10:32:45;;;;;;;12.20;4.93;;;;;;;-143.21;50.26;71356.38;5031173;28;20186;-84
2023/05/22 10:35:20;;;;;;;11.30;4.53;;;;;;;-143.21;50.60;71376.22;5011532;28;20641;-84
2023/05/22 10:37:55;;;;;;;9.57;4.50;;;;;;;-143.21;51.12;71378.19;5026117;28;20248;-76
2023/05/22 10:40:27;;;;;;;12.27;5.47;;;;;;;-143.21;52.28;71392.06;5030549;28;20198;-83
2023/05/22 10:43:02;;;;;;;16.75;7.28;;;;;;;-143.21;52.49;71400.00;5031414;28;20203;-83
2023/05/22 10:45:30;;;;;;;15.07;7.78;;;;;;;-143.21;52.77;71419.84;5031889;28;20190;-86
2023/05/22 10:48:06;;;;;;;15.40;6.35;;;;;;;-143.21;54.59;71423.78;5031414;28;20281;-84
2023/05/22 10:50:33;;;;;;;12.30;5.57;;;;;;;-143.21;56.60;71429.75;5031053;28;20187;-78
2023/05/22 10:53:20;;;;;;;18.35;6.10;;;;;;;-143.21;58.66;71433.72;5030229;28;20618;-77
2023/05/22 10:55:48;;;;;;;10.85;6.15;;;;;;;-143.21;61.19;71433.72;5030794;28;20215;-84
2023/05/22 10:58:15;;;;;;;11.02;5.13;;;;;;;-143.21;61.30;71429.75;5031074;28;20222;-84
2023/05/22 11:00:42;;;;;;;9.88;5.35;;;;;;;-143.21;62.81;71423.78;5031629;28;20195;-84
2023/05/22 11:03:10;;;;;;;9.77;6.00;;;;;;;-143.21;62.36;71421.81;5030372;28;20225;-77
2023/05/22 11:05:38;;;;;;;7.28;5.57;;;;;;;-143.21;59.45;71421.81;5030306;28;20608;-79
2023/05/22 11:08:12;;;;;;;8.38;5.28;;;;;;;-143.21;59.85;71429.75;5033867;28;20194;-77
2023/05/22 11:10:54;;;;;;;8.57;5.03;;;;;;;-143.21;59.31;71427.75;5032224;28;20187;-77
2023/05/22 11:13:24;;;;;;;8.90;5.18;;;;;;;-143.21;58.62;71405.94;5032833;28;20202;-78
2023/05/22 11:15:54;;;;;;;13.15;5.18;;;;;;;-143.21;58.36;71382.16;5031287;28;20198;-76
2023/05/22 11:18:22;;;;;;;9.15;5.13;;;;;;;-143.21;58.33;71344.50;5033991;28;20202;-77
2023/05/22 11:20:49;;;;;;;8.32;5.38;;;;;;;-143.21;57.72;71316.75;5033829;28;20198;-76
2023/05/22 11:23:18;;;;;;;8.20;5.47;;;;;;;-143.21;57.42;71279.06;5033524;28;20731;-77